x

Bw Pioneer Buoy - Walker Ridge 249 (42360) Wave Buoy

4:00am - Fri 31st Oct 2014 All times are UTC.

  • Sig Wave height 3.0ft
  • Peak Period 5s
  • Wind
    18mph, 27mph gusts
  • Sea Temp 83°f
  • Air Temp 76°f
  • Sea Pressure 1016.3mb

More Historic Weather Station data

Upgrade to MSW Pro to gain access to the past 30 days of data for over 8000 Wavebouys and Weather Stations around the globe.

Join Pro

Comparision Forecast

View Surf forecast
   
Fri 10/31 4:00am 3ft 5s 18 27 mph 1016.3mb 83f 76f
3:00am 3ft 5s 20 27 mph 1016mb 83f 76f
2:00am 3.5ft 5s 18 25 mph 1015.8mb 83f 77f
1:00am 3.5ft 5s 20 27 mph 1015.4mb 83f 77f
12:00am 4ft 5s 22 29 mph 1014.7mb 82f 77f
Thu 10/30 11:00pm 3.5ft 5s 27 36 mph 1014.5mb 82f 78f
10:00pm 3ft 4s 27 34 mph 1014.1mb 83f 78f
9:00pm 3ft 4s 22 29 mph 1014.2mb - 78f
8:00pm 2.5ft 4s 22 27 mph 1014.3mb 83f 78f
7:00pm 2ft 4s 20 27 mph 1014.8mb 83f 79f
6:00pm 1.6ft 4s 13 16 mph 1016.3mb 83f 79f
5:00pm 2ft 4s 13 20 mph 1016.9mb 82f 79f
4:00pm 1.6ft 6s 16 20 mph 1017.5mb 82f 80f
3:00pm 1.6ft 6s 16 20 mph 1017.2mb 82f 79f
2:00pm 1.6ft 7s 18 29 mph 1017mb 82f 79f
1:00pm 1.6ft 7s 13 18 mph 1016.5mb 83f 80f
12:00pm 1.6ft 7s 13 18 mph 1015.9mb 83f 79f
11:00am 1.6ft 7s 11 13 mph 1015.8mb 83f 79f
10:00am 1.6ft 7s 9 13 mph 1015.5mb 83f 79f
9:00am 1.6ft 6s 9 13 mph 1015.5mb 83f 79f
8:00am 1.6ft 6s 9 11 mph 1015.8mb 83f 79f
7:00am 1.6ft 6s 7 9 mph 1016.3mb 83f 79f
6:00am 1.6ft 6s 4 9 mph 1016.8mb 83f 80f
5:00am 1.6ft 6s 7 11 mph 1017.2mb 83f 80f
4:00am 1.6ft 7s 11 16 mph 1017.4mb 83f 80f
3:00am 1.6ft 7s 11 16 mph 1017.2mb 83f 80f
2:00am 1.6ft 7s 9 13 mph 1017.1mb 83f 80f
1:00am 1.6ft 7s 9 13 mph 1017mb 83f 80f
12:00am 1.6ft 7s 11 16 mph 1016.6mb 83f 80f
Wed 10/29 11:00pm 1.6ft 6s 11 13 mph 1016.4mb 83f 80f
10:00pm 1.6ft 5s 11 16 mph 1016.3mb 83f 80f
9:00pm 1.6ft 6s 11 16 mph 1016.3mb 84f 80f
8:00pm 1.6ft 6s 9 11 mph 1016.6mb 84f 80f
7:00pm 1.6ft 6s 7 9 mph 1017.5mb 84f 80f
6:00pm 1.6ft 6s 4 9 mph 1018.5mb 83f 80f
5:00pm 1.6ft 6s 4 9 mph 1019.4mb 83f 80f
4:00pm 1.6ft 6s 4 7 mph 1019.8mb 83f 80f
3:00pm 1.6ft 6s 2 7 mph 1019.7mb 83f 80f
2:00pm 1.6ft 6s  -  4 mph 1019.1mb 83f 81f
1:00pm 1.6ft 6s 2 4 mph 1018.6mb 83f 80f
12:00pm 1.6ft 6s 2 4 mph 1018.1mb 83f 79f
11:00am 1.6ft 6s 2 4 mph 1017.9mb 83f 79f
10:00am 1.6ft 7s  -  2 mph 1017.7mb 83f 79f
9:00am 1.6ft 6s 2 4 mph 1017.5mb 83f 79f
8:00am 2ft 6s 2 4 mph 1017.4mb 83f 79f
7:00am 1.6ft 6s 4 7 mph 1017.6mb 83f 80f
6:00am 2ft 5s 4 7 mph 1018mb 84f 80f
5:00am 2.5ft 6s 4 7 mph 1018.1mb 83f 80f
4:00am 2ft 6s 4 9 mph 1018.3mb 83f 80f
3:00am 2ft 6s 7 9 mph 1018.3mb 83f 80f
2:00am 2ft 6s 7 9 mph 1018mb 84f 81f
Tue 10/28 10:00pm 1ft 3s 4 9 mph 1016.9mb 84f 81f
9:00pm 1ft 4s 9 11 mph 1016.9mb 84f 80f
8:00pm 1ft 4s 9 11 mph 1017mb 84f 80f
7:00pm 1.3ft 3s 9 11 mph 1017.4mb 84f 80f
6:00pm 1ft 3s 9 16 mph 1018mb 83f 80f
5:00pm 1ft 3s 9 16 mph 1018.6mb 83f 80f
4:00pm 1.3ft 4s 7 11 mph 1019mb 83f 81f
3:00pm 1.3ft 4s 7 11 mph 1018.3mb 83f 80f
2:00pm 1.3ft 4s 9 11 mph 1018mb 83f 80f
1:00pm 1ft 3s 11 13 mph 1017.4mb 83f 79f
12:00pm 1.3ft 3s 11 16 mph 1017.1mb 83f 80f
11:00am 1.3ft 3s 11 16 mph 1016.5mb 83f 79f
10:00am 1.6ft 3s 13 18 mph 1016.3mb 83f 79f
9:00am 1.6ft 3s 13 20 mph 1016mb 83f 79f
8:00am 1.6ft 3s 16 22 mph 1016.3mb 83f 79f
7:00am 1.6ft 3s 16 22 mph 1016.5mb 83f 80f
6:00am 1.6ft 3s 18 25 mph 1016.5mb 83f 80f
5:00am 1.6ft 3s 13 22 mph 1016.8mb 83f 80f
4:00am 1.6ft 3s 16 20 mph 1016.9mb 83f 80f
3:00am 1.6ft 3s 16 22 mph 1016.8mb 83f 80f
2:00am 1.6ft 3s 18 22 mph 1016.6mb 84f 80f
1:00am 1.6ft 3s 16 22 mph 1016.1mb 84f 80f
12:00am 1.3ft 3s 16 20 mph 1015.6mb 84f 80f
Mon 10/27 11:00pm 1.3ft 3s 16 22 mph 1015.3mb 84f 80f
10:00pm 1.3ft 3s 16 22 mph 1015mb 84f 80f
9:00pm 1.3ft 3s 16 20 mph 1015mb 84f 80f
7:00pm 1.6ft 3s 13 20 mph 1015.8mb 84f 80f
6:00pm 1.3ft 5s 18 22 mph 1016.1mb 84f 80f
5:00pm 1ft 4s 16 22 mph 1017.1mb 83f 80f
4:00pm 1ft 6s 18 22 mph 1017.4mb 83f 80f
3:00pm 1ft 6s 13 20 mph 1017.5mb 83f 79f
2:00pm 1ft 6s 16 22 mph 1017mb 83f 79f
1:00pm 1ft 4s 13 20 mph 1016.5mb 83f 79f
12:00pm 1ft 5s 13 18 mph 1016mb 83f 78f
11:00am 1.3ft 6s 11 18 mph 1015.5mb 83f 78f
10:00am 1.3ft 4s 9 16 mph 1015.3mb 83f 78f
9:00am 1.3ft 5s 11 16 mph 1015.4mb 83f 78f
8:00am 1.3ft 6s 9 16 mph 1015.4mb 84f 78f
7:00am 1.3ft 5s 7 13 mph 1015.5mb 84f 78f